Time,TemperatureF,DewpointF,PressureIn,WindDirection,WindDirectionDegrees,WindSpeedMPH,WindSpeedGustMPH,Humidity,HourlyPrecipIn,Conditions,Clouds,dailyrainin,SoftwareType,DateUTC
2013-04-16 00:00:00,35.6,22.7,27.20,North,0,12.8,15.4,59,0.00,,---,0.00,VWS V14.01,2013-04-16 05:00:00,
2013-04-16 00:03:00,38.8,21.8,27.17,NE,45,12.5,12.8,50,0.00,,---,0.00,VWS V14.01,2013-04-16 05:03:00,
2013-04-16 00:08:00,38.7,21.6,27.17,NE,45,8.1,12.8,50,0.00,,---,0.00,VWS V14.01,2013-04-16 05:08:00,
2013-04-16 00:13:00,38.7,21.6,27.17,NE,45,12.8,12.8,50,0.00,,---,0.00,VWS V14.01,2013-04-16 05:13:00,
2013-04-16 00:15:00,35.1,23.8,27.20,North,0,12.1,16.3,63,0.00,,---,0.00,VWS V14.01,2013-04-16 05:15:00,
2013-04-16 00:18:00,38.5,21.5,27.20,ENE,68,10.1,13.0,50,0.00,,---,0.00,VWS V14.01,2013-04-16 05:18:00,
2013-04-16 00:23:00,38.5,21.5,27.20,NE,45,8.7,13.0,50,0.00,,---,0.00,VWS V14.01,2013-04-16 05:23:00,
2013-04-16 00:28:00,38.1,21.1,27.20,NE,45,10.3,13.0,50,0.00,,---,0.00,VWS V14.01,2013-04-16 05:28:00,
2013-04-16 00:30:00,34.5,25.4,27.20,North,0,11.0,15.4,69,0.00,,---,0.00,VWS V14.01,2013-04-16 05:30:00,
2013-04-16 00:33:00,37.4,21.4,27.20,NNE,22,10.1,13.2,52,0.00,,---,0.00,VWS V14.01,2013-04-16 05:33:00,
2013-04-16 00:38:00,36.9,21.3,27.20,NNE,22,11.4,13.2,53,0.00,,---,0.00,VWS V14.01,2013-04-16 05:38:00,
2013-04-16 00:43:00,36.7,21.6,27.20,NNE,22,9.8,13.2,54,0.00,,---,0.00,VWS V14.01,2013-04-16 05:43:00,
2013-04-16 00:45:00,34.0,26.2,27.23,North,0,10.3,15.7,73,0.00,,---,0.00,VWS V14.01,2013-04-16 05:45:00,
2013-04-16 00:48:00,36.5,21.9,27.20,North,0,6.9,12.5,55,0.00,,---,0.00,VWS V14.01,2013-04-16 05:48:00,
2013-04-16 00:53:00,36.3,21.7,27.20,NNE,22,10.7,13.2,55,0.00,,---,0.00,VWS V14.01,2013-04-16 05:53:00,
2013-04-16 00:58:00,35.8,22.5,27.20,North,0,10.1,15.4,58,0.00,,---,0.00,VWS V14.01,2013-04-16 05:58:00,
2013-04-16 01:00:00,33.8,26.4,27.20,North,0,12.3,17.7,74,0.00,,---,0.00,VWS V14.01,2013-04-16 06:00:00,
2013-04-16 01:03:00,35.6,22.7,27.20,North,0,11.4,14.8,59,0.00,,---,0.00,VWS V14.01,2013-04-16 06:03:00,
2013-04-16 01:07:00,35.2,23.5,27.20,NNE,22,10.5,14.8,62,0.00,,---,0.00,VWS V14.01,2013-04-16 06:07:00,
2013-04-16 01:12:00,35.1,23.8,27.20,North,0,15.2,15.4,63,0.00,,---,0.00,VWS V14.01,2013-04-16 06:12:00,
2013-04-16 01:15:00,33.6,26.9,27.23,NNE,22,11.2,14.8,76,0.00,,---,0.00,VWS V14.01,2013-04-16 06:15:00,
2013-04-16 01:17:00,34.9,24.3,27.20,North,0,12.3,13.6,65,0.00,,---,0.00,VWS V14.01,2013-04-16 06:17:00,
2013-04-16 01:22:00,34.7,24.5,27.20,North,0,12.1,15.4,66,0.00,,---,0.00,VWS V14.01,2013-04-16 06:22:00,
2013-04-16 01:27:00,34.5,25.1,27.20,NNE,22,10.7,15.4,68,0.00,,---,0.00,VWS V14.01,2013-04-16 06:27:00,
2013-04-16 01:30:00,33.4,27.0,27.23,NE,45,9.0,15.2,77,0.00,,---,0.00,VWS V14.01,2013-04-16 06:30:00,
2013-04-16 01:32:00,34.5,25.8,27.23,North,0,10.1,12.8,70,0.00,,---,0.00,VWS V14.01,2013-04-16 06:32:00,
2013-04-16 01:37:00,34.3,25.9,27.23,North,0,10.5,14.8,71,0.00,,---,0.00,VWS V14.01,2013-04-16 06:37:00,
2013-04-16 01:42:00,34.2,26.1,27.23,NNE,22,12.1,15.7,72,0.00,,---,0.00,VWS V14.01,2013-04-16 06:42:00,
2013-04-16 01:45:00,33.3,27.2,27.23,NNE,22,9.4,14.8,78,0.00,,---,0.00,VWS V14.01,2013-04-16 06:45:00,
2013-04-16 01:47:00,34.0,26.2,27.23,North,0,10.3,10.3,73,0.00,,---,0.00,VWS V14.01,2013-04-16 06:47:00,
2013-04-16 01:52:00,33.8,26.4,27.20,North,0,14.1,17.7,74,0.00,,---,0.00,VWS V14.01,2013-04-16 06:52:00,
2013-04-16 01:57:00,33.8,26.4,27.20,NNE,22,17.0,17.7,74,0.00,,---,0.00,VWS V14.01,2013-04-16 06:57:00,
2013-04-16 02:00:00,33.1,27.0,27.23,NNE,22,10.1,13.2,78,0.00,,---,0.00,VWS V14.01,2013-04-16 07:00:00,
2013-04-16 02:02:00,33.8,26.7,27.23,NNE,22,10.7,12.8,75,0.00,,---,0.00,VWS V14.01,2013-04-16 07:02:00,
2013-04-16 02:07:00,33.6,26.6,27.23,NNE,22,11.0,14.8,75,0.00,,---,0.00,VWS V14.01,2013-04-16 07:07:00,
2013-04-16 02:12:00,33.6,26.9,27.23,NNE,22,10.3,14.8,76,0.00,,---,0.00,VWS V14.01,2013-04-16 07:12:00,
2013-04-16 02:15:00,32.9,27.1,27.23,North,0,12.8,15.4,79,0.00,,---,0.00,VWS V14.01,2013-04-16 07:15:00,
2013-04-16 02:17:00,33.6,26.9,27.23,NNE,22,9.6,13.0,76,0.00,,---,0.00,VWS V14.01,2013-04-16 07:17:00,
2013-04-16 02:22:00,33.4,26.7,27.23,NNE,22,12.8,14.8,76,0.00,,---,0.00,VWS V14.01,2013-04-16 07:22:00,
2013-04-16 02:27:00,33.4,27.0,27.23,NNE,22,11.0,15.2,77,0.00,,---,0.00,VWS V14.01,2013-04-16 07:27:00,
2013-04-16 02:30:00,32.7,26.9,27.23,NNE,22,8.7,13.0,79,0.00,,---,0.00,VWS V14.01,2013-04-16 07:30:00,
2013-04-16 02:32:00,33.3,26.8,27.23,North,0,13.2,14.8,77,0.00,,---,0.00,VWS V14.01,2013-04-16 07:32:00,
2013-04-16 02:37:00,33.3,26.8,27.23,North,0,10.7,14.8,77,0.00,,---,0.00,VWS V14.01,2013-04-16 07:37:00,
2013-04-16 02:42:00,33.3,27.1,27.23,North,0,12.3,14.8,78,0.00,,---,0.00,VWS V14.01,2013-04-16 07:42:00,
2013-04-16 02:45:00,32.5,27.1,27.23,NNE,22,10.3,13.0,80,0.00,,---,0.00,VWS V14.01,2013-04-16 07:45:00,
2013-04-16 02:47:00,33.3,27.1,27.23,North,0,10.3,12.8,78,0.00,,---,0.00,VWS V14.01,2013-04-16 07:47:00,
2013-04-16 02:52:00,33.1,27.0,27.23,North,0,12.3,13.2,78,0.00,,---,0.00,VWS V14.01,2013-04-16 07:52:00,
2013-04-16 02:57:00,33.1,27.0,27.23,NE,45,10.3,13.2,78,0.00,,---,0.00,VWS V14.01,2013-04-16 07:57:00,
2013-04-16 03:00:00,32.5,27.4,27.23,NNE,22,8.5,11.4,81,0.00,,---,0.00,VWS V14.01,2013-04-16 08:00:00,
2013-04-16 03:02:00,33.1,27.0,27.23,North,0,9.6,12.3,78,0.00,,---,0.00,VWS V14.01,2013-04-16 08:02:00,
2013-04-16 03:07:00,32.9,27.1,27.23,North,0,7.8,12.8,79,0.00,,---,0.00,VWS V14.01,2013-04-16 08:07:00,
2013-04-16 03:12:00,32.9,27.1,27.23,North,0,9.0,15.4,79,0.00,,---,0.00,VWS V14.01,2013-04-16 08:12:00,
2013-04-16 03:15:00,32.5,27.4,27.23,NNE,22,8.5,10.3,81,0.00,,---,0.00,VWS V14.01,2013-04-16 08:15:00,
2013-04-16 03:17:00,32.7,26.9,27.23,North,0,12.3,13.0,79,0.00,,---,0.00,VWS V14.01,2013-04-16 08:17:00,
2013-04-16 03:22:00,32.7,26.9,27.23,NNE,22,9.8,13.0,79,0.00,,---,0.00,VWS V14.01,2013-04-16 08:22:00,
2013-04-16 03:27:00,32.7,26.9,27.23,North,0,10.7,13.0,79,0.00,,---,0.00,VWS V14.01,2013-04-16 08:27:00,
2013-04-16 03:30:00,32.4,27.5,27.23,NE,45,10.5,11.2,82,0.00,,---,0.00,VWS V14.01,2013-04-16 08:30:00,
2013-04-16 03:32:00,32.7,26.9,27.23,North,0,10.1,10.5,79,0.00,,---,0.00,VWS V14.01,2013-04-16 08:32:00,
2013-04-16 03:37:00,32.7,27.2,27.23,NNE,22,8.7,12.1,80,0.00,,---,0.00,VWS V14.01,2013-04-16 08:37:00,
2013-04-16 03:42:00,32.5,27.1,27.23,NE,45,11.0,13.0,80,0.00,,---,0.00,VWS V14.01,2013-04-16 08:42:00,
2013-04-16 03:47:00,32.5,27.1,27.23,NNE,22,8.5,11.2,80,0.00,,---,0.00,VWS V14.01,2013-04-16 08:47:00,
2013-04-16 03:52:00,32.5,27.4,27.23,NNE,22,7.4,11.2,81,0.00,,---,0.00,VWS V14.01,2013-04-16 08:52:00,
2013-04-16 03:57:00,32.5,27.4,27.23,NNE,22,8.1,11.4,81,0.00,,---,0.00,VWS V14.01,2013-04-16 08:57:00,
2013-04-16 04:00:00,32.2,26.4,27.23,NE,45,12.1,12.8,79,0.00,,---,0.00,VWS V14.01,2013-04-16 09:00:00,
2013-04-16 04:02:00,32.5,27.4,27.23,NNE,22,6.0,8.7,81,0.00,,---,0.00,VWS V14.01,2013-04-16 09:02:00,
2013-04-16 04:07:00,32.5,27.4,27.23,NNE,22,7.8,10.3,81,0.00,,---,0.00,VWS V14.01,2013-04-16 09:07:00,
2013-04-16 04:12:00,32.5,27.4,27.23,NNE,22,10.3,10.3,81,0.00,,---,0.00,VWS V14.01,2013-04-16 09:12:00,
2013-04-16 04:15:00,32.0,26.5,27.23,NE,45,6.3,12.1,80,0.00,,---,0.00,VWS V14.01,2013-04-16 09:15:00,
2013-04-16 04:17:00,32.5,27.4,27.23,NE,45,7.8,9.8,81,0.00,,---,0.00,VWS V14.01,2013-04-16 09:17:00,
2013-04-16 04:22:00,32.4,27.5,27.23,NE,45,8.5,10.5,82,0.00,,---,0.00,VWS V14.01,2013-04-16 09:22:00,
2013-04-16 04:27:00,32.4,27.2,27.23,NNE,22,7.4,11.2,81,0.00,,---,0.00,VWS V14.01,2013-04-16 09:27:00,
2013-04-16 04:30:00,32.0,27.1,27.23,East,90,8.1,9.8,82,0.00,,---,0.00,VWS V14.01,2013-04-16 09:30:00,
2013-04-16 04:32:00,32.4,27.5,27.26,NNE,22,10.1,10.5,82,0.00,,---,0.00,VWS V14.01,2013-04-16 09:32:00,
2013-04-16 04:37:00,32.4,27.5,27.26,NNE,22,8.7,11.0,82,0.00,,---,0.00,VWS V14.01,2013-04-16 09:37:00,
2013-04-16 04:42:00,32.4,27.8,27.26,NNE,22,8.5,11.0,83,0.00,,---,0.00,VWS V14.01,2013-04-16 09:42:00,
2013-04-16 04:45:00,31.8,26.7,27.25,ENE,68,6.5,8.5,81,0.00,,---,0.00,VWS V14.01,2013-04-16 09:45:00,
2013-04-16 04:47:00,32.4,27.8,27.23,NE,45,8.7,11.0,83,0.00,,---,0.00,VWS V14.01,2013-04-16 09:47:00,
2013-04-16 04:52:00,32.4,27.8,27.23,NE,45,8.5,11.0,83,0.00,,---,0.00,VWS V14.01,2013-04-16 09:52:00,
2013-04-16 04:57:00,32.2,26.7,27.23,NE,45,10.3,12.8,80,0.00,,---,0.00,VWS V14.01,2013-04-16 09:57:00,
2013-04-16 05:00:00,31.6,26.8,27.25,NE,45,6.3,8.1,82,0.00,,---,0.00,VWS V14.01,2013-04-16 10:00:00,
2013-04-16 05:02:00,32.2,26.4,27.23,NE,45,6.3,12.1,79,0.00,,---,0.00,VWS V14.01,2013-04-16 10:02:00,
2013-04-16 05:07:00,32.2,26.4,27.23,NE,45,9.8,12.1,79,0.00,,---,0.00,VWS V14.01,2013-04-16 10:07:00,
2013-04-16 05:12:00,32.0,26.5,27.23,ENE,68,10.3,12.1,80,0.00,,---,0.00,VWS V14.01,2013-04-16 10:12:00,
2013-04-16 05:15:00,31.6,26.5,27.23,East,90,6.5,9.4,81,0.00,,---,0.00,VWS V14.01,2013-04-16 10:15:00,
2013-04-16 05:17:00,32.0,26.5,27.23,NE,45,5.8,7.2,80,0.00,,---,0.00,VWS V14.01,2013-04-16 10:17:00,
2013-04-16 05:22:00,32.0,26.8,27.23,East,90,6.3,7.2,81,0.00,,---,0.00,VWS V14.01,2013-04-16 10:22:00,
2013-04-16 05:27:00,32.0,27.1,27.23,ENE,68,5.8,9.8,82,0.00,,---,0.00,VWS V14.01,2013-04-16 10:27:00,
2013-04-16 05:30:00,31.6,26.5,27.23,East,90,4.0,8.1,81,0.00,,---,0.00,VWS V14.01,2013-04-16 10:30:00,
2013-04-16 05:32:00,32.0,26.8,27.26,East,90,4.9,8.1,81,0.00,,---,0.00,VWS V14.01,2013-04-16 10:32:00,
2013-04-16 05:37:00,32.0,26.8,27.26,East,90,5.4,8.1,81,0.00,,---,0.00,VWS V14.01,2013-04-16 10:37:00,
2013-04-16 05:42:00,31.8,26.4,27.26,East,90,4.0,8.1,80,0.00,,---,0.00,VWS V14.01,2013-04-16 10:42:00,
2013-04-16 05:45:00,31.5,26.0,27.25,East,90,5.4,8.5,80,0.00,,---,0.00,VWS V14.01,2013-04-16 10:45:00,
2013-04-16 05:47:00,31.8,26.7,27.26,NE,45,5.8,7.4,81,0.00,,---,0.00,VWS V14.01,2013-04-16 10:47:00,
2013-04-16 05:52:00,31.8,26.7,27.26,NNE,22,6.5,7.4,81,0.00,,---,0.00,VWS V14.01,2013-04-16 10:52:00,
2013-04-16 05:57:00,31.6,26.8,27.26,NE,45,7.2,7.8,82,0.00,,---,0.00,VWS V14.01,2013-04-16 10:57:00,
2013-04-16 06:00:00,31.3,26.1,27.25,East,90,5.8,7.8,81,0.00,,---,0.00,VWS V14.01,2013-04-16 11:00:00,
2013-04-16 06:02:00,31.6,26.8,27.23,East,90,7.6,8.7,82,0.00,,---,0.00,VWS V14.01,2013-04-16 11:02:00,
2013-04-16 06:07:00,31.6,26.8,27.23,NE,45,5.8,9.4,82,0.00,,---,0.00,VWS V14.01,2013-04-16 11:07:00,
2013-04-16 06:12:00,31.6,26.5,27.23,East,90,6.0,9.4,81,0.00,,---,0.00,VWS V14.01,2013-04-16 11:12:00,
2013-04-16 06:15:00,31.5,26.3,27.25,ENE,68,6.0,8.1,81,0.00,,---,0.00,VWS V14.01,2013-04-16 11:15:00,
2013-04-16 06:17:00,31.6,26.5,27.23,NE,45,7.6,7.6,81,0.00,,---,0.00,VWS V14.01,2013-04-16 11:17:00,
2013-04-16 06:22:00,31.6,26.2,27.23,East,90,6.5,8.1,80,0.00,,---,0.00,VWS V14.01,2013-04-16 11:22:00,
2013-04-16 06:27:00,31.6,26.2,27.23,East,90,5.8,8.1,80,0.00,,---,0.00,VWS V14.01,2013-04-16 11:27:00,
2013-04-16 06:30:00,31.5,26.3,27.25,East,90,3.1,7.6,81,0.00,,---,0.00,VWS V14.01,2013-04-16 11:30:00,
2013-04-16 06:32:00,31.6,26.5,27.23,NE,45,3.1,4.0,81,0.00,,---,0.00,VWS V14.01,2013-04-16 11:32:00,
2013-04-16 06:37:00,31.6,26.2,27.26,East,90,5.8,8.5,80,0.00,,---,0.00,VWS V14.01,2013-04-16 11:37:00,
2013-04-16 06:42:00,31.5,26.0,27.26,NE,45,7.4,8.5,80,0.00,,---,0.00,VWS V14.01,2013-04-16 11:42:00,
2013-04-16 06:45:00,31.6,26.5,27.25,East,90,5.8,7.8,81,0.00,,---,0.00,VWS V14.01,2013-04-16 11:45:00,
2013-04-16 06:47:00,31.5,26.0,27.26,ENE,68,5.4,7.8,80,0.00,,---,0.00,VWS V14.01,2013-04-16 11:47:00,
2013-04-16 06:52:00,31.5,26.3,27.26,East,90,5.6,7.8,81,0.00,,---,0.00,VWS V14.01,2013-04-16 11:52:00,
2013-04-16 06:57:00,31.5,26.3,27.26,NE,45,6.0,7.8,81,0.00,,---,0.00,VWS V14.01,2013-04-16 11:57:00,
2013-04-16 07:00:00,31.8,26.4,27.25,SE,135,6.3,7.8,80,0.00,,---,0.00,VWS V14.01,2013-04-16 12:00:00,
2013-04-16 07:02:00,31.5,26.3,27.26,ENE,68,5.4,5.8,81,0.00,,---,0.00,VWS V14.01,2013-04-16 12:02:00,
2013-04-16 07:07:00,31.5,26.3,27.26,NE,45,5.8,8.1,81,0.00,,---,0.00,VWS V14.01,2013-04-16 12:07:00,
2013-04-16 07:12:00,31.5,26.3,27.26,NE,45,6.3,8.1,81,0.00,,---,0.00,VWS V14.01,2013-04-16 12:12:00,
2013-04-16 07:15:00,32.2,27.0,27.25,ENE,68,5.8,8.5,81,0.00,,---,0.00,VWS V14.01,2013-04-16 12:15:00,
2013-04-16 07:17:00,31.3,26.4,27.26,East,90,4.3,6.5,82,0.00,,---,0.00,VWS V14.01,2013-04-16 12:17:00,
2013-04-16 07:22:00,31.5,26.3,27.26,East,90,4.7,7.6,81,0.00,,---,0.00,VWS V14.01,2013-04-16 12:22:00,
2013-04-16 07:27:00,31.5,26.6,27.26,East,90,4.3,7.6,82,0.00,,---,0.00,VWS V14.01,2013-04-16 12:27:00,
2013-04-16 07:30:00,32.5,26.8,27.25,East,90,7.2,9.4,79,0.00,,---,0.00,VWS V14.01,2013-04-16 12:30:00,
2013-04-16 07:32:00,31.6,26.5,27.26,East,90,5.8,6.3,81,0.00,,---,0.00,VWS V14.01,2013-04-16 12:32:00,
2013-04-16 07:37:00,31.6,26.5,27.26,ESE,112,5.8,6.5,81,0.00,,---,0.00,VWS V14.01,2013-04-16 12:37:00,
2013-04-16 07:42:00,31.6,26.5,27.26,NE,45,4.0,7.8,81,0.00,,---,0.00,VWS V14.01,2013-04-16 12:42:00,
2013-04-16 07:45:00,32.7,26.3,27.25,East,90,7.2,9.0,77,0.00,,---,0.00,VWS V14.01,2013-04-16 12:45:00,
2013-04-16 07:47:00,31.6,26.5,27.26,ENE,68,5.6,6.3,81,0.00,,---,0.00,VWS V14.01,2013-04-16 12:47:00,
2013-04-16 07:52:00,31.8,26.7,27.26,East,90,6.5,6.5,81,0.00,,---,0.00,VWS V14.01,2013-04-16 12:52:00,
2013-04-16 07:57:00,31.6,26.2,27.26,East,90,5.8,7.8,80,0.00,,---,0.00,VWS V14.01,2013-04-16 12:57:00,
2013-04-16 08:00:00,33.1,26.0,27.25,East,90,8.5,10.3,75,0.00,,---,0.00,VWS V14.01,2013-04-16 13:00:00,
2013-04-16 08:02:00,31.8,26.4,27.26,East,90,6.0,8.5,80,0.00,,---,0.00,VWS V14.01,2013-04-16 13:02:00,
2013-04-16 08:07:00,31.8,26.4,27.26,ESE,112,4.3,8.5,80,0.00,,---,0.00,VWS V14.01,2013-04-16 13:07:00,
2013-04-16 08:12:00,32.0,26.8,27.26,ENE,68,5.8,8.5,81,0.00,,---,0.00,VWS V14.01,2013-04-16 13:12:00,
2013-04-16 08:15:00,33.3,26.2,27.25,SE,135,6.5,9.6,75,0.00,,---,0.00,VWS V14.01,2013-04-16 13:15:00,
2013-04-16 08:17:00,32.2,27.0,27.26,East,90,7.6,8.7,81,0.00,,---,0.00,VWS V14.01,2013-04-16 13:17:00,
2013-04-16 08:22:00,32.2,26.4,27.26,East,90,7.8,9.4,79,0.00,,---,0.00,VWS V14.01,2013-04-16 13:22:00,
2013-04-16 08:27:00,32.2,26.4,27.26,ESE,112,7.4,9.4,79,0.00,,---,0.00,VWS V14.01,2013-04-16 13:27:00,
2013-04-16 08:30:00,33.6,25.6,27.28,East,90,5.4,11.9,72,0.00,,---,0.00,VWS V14.01,2013-04-16 13:30:00,
2013-04-16 08:32:00,32.5,26.8,27.26,East,90,7.4,7.6,79,0.00,,---,0.00,VWS V14.01,2013-04-16 13:32:00,
2013-04-16 08:37:00,32.7,26.6,27.26,East,90,6.3,9.0,78,0.00,,---,0.00,VWS V14.01,2013-04-16 13:37:00,
2013-04-16 08:42:00,32.7,26.6,27.26,ESE,112,5.6,9.0,78,0.00,,---,0.00,VWS V14.01,2013-04-16 13:42:00,
2013-04-16 08:47:00,32.9,26.5,27.26,East,90,6.3,8.5,77,0.00,,---,0.00,VWS V14.01,2013-04-16 13:47:00,
2013-04-16 08:52:00,32.9,26.5,27.26,ESE,112,6.0,8.5,77,0.00,,---,0.00,VWS V14.01,2013-04-16 13:52:00,
2013-04-16 08:57:00,33.1,26.4,27.26,East,90,10.3,10.3,76,0.00,,---,0.00,VWS V14.01,2013-04-16 13:57:00,
2013-04-16 09:00:00,34.2,25.4,27.28,ESE,112,7.8,11.2,70,0.00,,---,0.00,VWS V14.01,2013-04-16 14:00:00,
2013-04-16 09:02:00,33.1,26.0,27.26,East,90,7.4,8.5,75,0.00,,---,0.00,VWS V14.01,2013-04-16 14:02:00,
2013-04-16 09:07:00,33.1,25.7,27.26,East,90,6.3,9.6,74,0.00,,---,0.00,VWS V14.01,2013-04-16 14:07:00,
2013-04-16 09:12:00,33.3,25.9,27.26,ESE,112,5.4,9.6,74,0.00,,---,0.00,VWS V14.01,2013-04-16 14:12:00,
2013-04-16 09:15:00,34.7,24.9,27.28,ESE,112,5.8,10.5,67,0.00,,---,0.00,VWS V14.01,2013-04-16 14:15:00,
2013-04-16 09:17:00,33.4,26.1,27.28,East,90,6.5,9.2,74,0.00,,---,0.00,VWS V14.01,2013-04-16 14:17:00,
2013-04-16 09:22:00,33.4,25.4,27.28,ESE,112,8.1,11.9,72,0.00,,---,0.00,VWS V14.01,2013-04-16 14:22:00,
2013-04-16 09:27:00,33.6,25.6,27.28,ENE,68,7.6,11.9,72,0.00,,---,0.00,VWS V14.01,2013-04-16 14:27:00,
2013-04-16 09:30:00,35.4,24.8,27.25,East,90,6.3,10.7,65,0.00,,---,0.00,VWS V14.01,2013-04-16 14:30:00,
2013-04-16 09:32:00,33.6,25.6,27.28,ESE,112,6.3,7.8,72,0.00,,---,0.00,VWS V14.01,2013-04-16 14:32:00,
2013-04-16 09:37:00,33.6,25.6,27.28,East,90,3.1,10.1,72,0.00,,---,0.00,VWS V14.01,2013-04-16 14:37:00,
2013-04-16 09:42:00,33.6,25.2,27.28,ESE,112,7.4,11.2,71,0.00,,---,0.00,VWS V14.01,2013-04-16 14:42:00,
2013-04-16 09:45:00,36.1,23.6,27.25,East,90,6.0,12.5,60,0.00,,---,0.00,VWS V14.01,2013-04-16 14:45:00,
2013-04-16 09:47:00,33.8,25.4,27.28,East,90,7.4,11.2,71,0.00,,---,0.00,VWS V14.01,2013-04-16 14:47:00,
2013-04-16 09:52:00,34.0,25.6,27.28,East,90,4.9,11.2,71,0.00,,---,0.00,VWS V14.01,2013-04-16 14:52:00,
2013-04-16 09:57:00,34.0,25.2,27.28,ESE,112,7.8,11.2,70,0.00,,---,0.00,VWS V14.01,2013-04-16 14:57:00,
2013-04-16 10:00:00,37.0,23.6,27.25,ESE,112,6.9,13.2,58,0.00,,---,0.00,VWS V14.01,2013-04-16 15:00:00,
2013-04-16 10:02:00,34.3,25.2,27.28,ESE,112,6.3,8.5,69,0.00,,---,0.00,VWS V14.01,2013-04-16 15:02:00,
2013-04-16 10:07:00,34.3,24.9,27.28,East,90,6.5,10.5,68,0.00,,---,0.00,VWS V14.01,2013-04-16 15:07:00,
2013-04-16 10:12:00,34.5,25.1,27.28,East,90,4.7,10.5,68,0.00,,---,0.00,VWS V14.01,2013-04-16 15:12:00,
2013-04-16 10:15:00,37.6,23.3,27.25,SE,135,5.6,11.0,56,0.00,,---,0.00,VWS V14.01,2013-04-16 15:15:00,
2013-04-16 10:17:00,34.7,24.5,27.26,ESE,112,8.5,10.5,66,0.00,,---,0.00,VWS V14.01,2013-04-16 15:17:00,
2013-04-16 10:22:00,34.9,24.7,27.26,ESE,112,5.4,10.5,66,0.00,,---,0.00,VWS V14.01,2013-04-16 15:22:00,
2013-04-16 10:27:00,35.1,24.1,27.26,East,90,4.7,10.7,64,0.00,,---,0.00,VWS V14.01,2013-04-16 15:27:00,
2013-04-16 10:30:00,37.9,23.7,27.25,SE,135,7.2,10.7,56,0.00,,---,0.00,VWS V14.01,2013-04-16 15:30:00,
2013-04-16 10:32:00,35.6,24.3,27.26,ESE,112,7.6,9.0,63,0.00,,---,0.00,VWS V14.01,2013-04-16 15:32:00,
2013-04-16 10:37:00,35.8,23.7,27.26,ENE,68,8.1,10.3,61,0.00,,---,0.00,VWS V14.01,2013-04-16 15:37:00,
2013-04-16 10:42:00,36.1,24.0,27.26,SE,135,5.6,12.5,61,0.00,,---,0.00,VWS V14.01,2013-04-16 15:42:00,
2013-04-16 10:45:00,38.5,23.7,27.25,East,90,4.9,11.0,55,0.00,,---,0.00,VWS V14.01,2013-04-16 15:45:00,
2013-04-16 10:47:00,36.1,23.6,27.26,East,90,7.6,10.1,60,0.00,,---,0.00,VWS V14.01,2013-04-16 15:47:00,
2013-04-16 10:52:00,36.3,23.8,27.26,ESE,112,7.6,10.5,60,0.00,,---,0.00,VWS V14.01,2013-04-16 15:52:00,
2013-04-16 10:57:00,36.7,23.7,27.26,East,90,7.6,11.0,59,0.00,,---,0.00,VWS V14.01,2013-04-16 15:57:00,
2013-04-16 11:00:00,38.8,23.6,27.25,ESE,112,11.9,12.5,54,0.00,,---,0.00,VWS V14.01,2013-04-16 16:00:00,
2013-04-16 11:02:00,37.0,23.6,27.26,East,90,6.0,6.9,58,0.00,,---,0.00,VWS V14.01,2013-04-16 16:02:00,
2013-04-16 11:07:00,37.2,23.8,27.26,ESE,112,6.5,9.8,58,0.00,,---,0.00,VWS V14.01,2013-04-16 16:07:00,
2013-04-16 11:12:00,37.6,23.7,27.26,East,90,10.1,11.0,57,0.00,,---,0.00,VWS V14.01,2013-04-16 16:12:00,
2013-04-16 11:15:00,38.8,23.6,27.25,ESE,112,5.4,12.1,54,0.00,,---,0.00,VWS V14.01,2013-04-16 16:15:00,
2013-04-16 11:17:00,37.8,23.5,27.26,East,90,7.8,10.5,56,0.00,,---,0.00,VWS V14.01,2013-04-16 16:17:00,
2013-04-16 11:22:00,38.1,23.8,27.26,ESE,112,9.4,10.7,56,0.00,,---,0.00,VWS V14.01,2013-04-16 16:22:00,
2013-04-16 11:27:00,37.8,23.1,27.26,ESE,112,5.8,10.7,55,0.00,,---,0.00,VWS V14.01,2013-04-16 16:27:00,
2013-04-16 11:30:00,39.0,23.8,27.25,SE,135,4.0,12.8,54,0.00,,---,0.00,VWS V14.01,2013-04-16 16:30:00,
2013-04-16 11:32:00,38.1,23.4,27.26,SE,135,6.3,10.3,55,0.00,,---,0.00,VWS V14.01,2013-04-16 16:32:00,
2013-04-16 11:37:00,38.5,23.7,27.26,East,90,7.8,11.0,55,0.00,,---,0.00,VWS V14.01,2013-04-16 16:37:00,
2013-04-16 11:42:00,38.5,23.7,27.26,East,90,8.7,11.0,55,0.00,,---,0.00,VWS V14.01,2013-04-16 16:42:00,
2013-04-16 11:45:00,40.3,24.5,27.23,ESE,112,11.2,13.4,53,0.00,,---,0.00,VWS V14.01,2013-04-16 16:45:00,
2013-04-16 11:47:00,38.5,23.7,27.26,SE,135,7.8,7.8,55,0.00,,---,0.00,VWS V14.01,2013-04-16 16:47:00,
2013-04-16 11:52:00,38.5,23.3,27.26,SE,135,10.1,12.5,54,0.00,,---,0.00,VWS V14.01,2013-04-16 16:52:00,
2013-04-16 11:57:00,38.7,23.9,27.26,East,90,5.6,12.5,55,0.00,,---,0.00,VWS V14.01,2013-04-16 16:57:00,
2013-04-16 12:00:00,41.5,24.8,27.25,SE,135,6.5,13.2,51,0.00,,---,0.00,VWS V14.01,2013-04-16 17:00:00,
2013-04-16 12:02:00,38.7,23.5,27.26,East,90,7.4,11.9,54,0.00,,---,0.00,VWS V14.01,2013-04-16 17:02:00,
2013-04-16 12:07:00,38.8,23.6,27.26,SE,135,11.0,11.9,54,0.00,,---,0.00,VWS V14.01,2013-04-16 17:07:00,
2013-04-16 12:12:00,38.8,23.6,27.26,East,90,7.4,12.1,54,0.00,,---,0.00,VWS V14.01,2013-04-16 17:12:00,
2013-04-16 12:15:00,41.5,24.8,27.25,SE,135,10.3,12.8,51,0.00,,---,0.00,VWS V14.01,2013-04-16 17:15:00,
2013-04-16 12:17:00,39.0,23.8,27.26,SE,135,5.6,10.5,54,0.00,,---,0.00,VWS V14.01,2013-04-16 17:17:00,
2013-04-16 12:22:00,38.7,23.5,27.26,SE,135,9.8,12.8,54,0.00,,---,0.00,VWS V14.01,2013-04-16 17:22:00,
2013-04-16 12:27:00,38.5,23.3,27.26,East,90,6.0,12.8,54,0.00,,---,0.00,VWS V14.01,2013-04-16 17:27:00,
2013-04-16 12:30:00,41.4,24.6,27.25,SE,135,10.5,16.6,51,0.00,,---,0.00,VWS V14.01,2013-04-16 17:30:00,
2013-04-16 12:32:00,39.2,24.0,27.23,East,90,8.5,10.5,54,0.00,,---,0.00,VWS V14.01,2013-04-16 17:32:00,
2013-04-16 12:37:00,39.2,23.5,27.23,East,90,8.5,11.0,53,0.00,,---,0.00,VWS V14.01,2013-04-16 17:37:00,
2013-04-16 12:42:00,39.4,23.7,27.23,ESE,112,9.4,13.4,53,0.00,,---,0.00,VWS V14.01,2013-04-16 17:42:00,
2013-04-16 12:45:00,41.9,25.1,27.23,SE,135,6.0,17.9,51,0.00,,---,0.00,VWS V14.01,2013-04-16 17:45:00,
2013-04-16 12:47:00,40.3,24.5,27.23,NE,45,8.1,11.2,53,0.00,,---,0.00,VWS V14.01,2013-04-16 17:47:00,
2013-04-16 12:52:00,40.8,24.6,27.26,East,90,8.5,11.2,52,0.00,,---,0.00,VWS V14.01,2013-04-16 17:52:00,
2013-04-16 12:57:00,41.2,24.9,27.26,ESE,112,10.3,13.2,52,0.00,,---,0.00,VWS V14.01,2013-04-16 17:57:00,
2013-04-16 13:00:00,44.8,26.8,27.20,SE,135,15.2,17.7,49,0.00,,---,0.00,VWS V14.01,2013-04-16 18:00:00,
2013-04-16 13:02:00,41.5,25.2,27.26,SE,135,5.8,12.8,52,0.00,,---,0.00,VWS V14.01,2013-04-16 18:02:00,
2013-04-16 13:07:00,41.4,24.6,27.26,East,90,5.6,12.8,51,0.00,,---,0.00,VWS V14.01,2013-04-16 18:07:00,
2013-04-16 13:12:00,41.4,24.6,27.26,ENE,68,7.8,12.8,51,0.00,,---,0.00,VWS V14.01,2013-04-16 18:12:00,
2013-04-16 13:15:00,45.0,26.0,27.20,ESE,112,6.0,19.2,47,0.00,,---,0.00,VWS V14.01,2013-04-16 18:15:00,
2013-04-16 13:17:00,41.7,24.9,27.26,SE,135,3.8,10.3,51,0.00,,---,0.00,VWS V14.01,2013-04-16 18:17:00,
2013-04-16 13:22:00,41.4,24.6,27.26,East,90,14.5,16.6,51,0.00,,---,0.00,VWS V14.01,2013-04-16 18:22:00,
2013-04-16 13:27:00,41.5,24.8,27.26,SE,135,12.1,16.6,51,0.00,,---,0.00,VWS V14.01,2013-04-16 18:27:00,
2013-04-16 13:30:00,44.4,25.5,27.20,ESE,112,14.3,19.0,47,0.00,,---,0.00,VWS V14.01,2013-04-16 18:30:00,
2013-04-16 13:32:00,41.5,24.8,27.23,ESE,112,12.3,13.0,51,0.00,,---,0.00,VWS V14.01,2013-04-16 18:32:00,
2013-04-16 13:37:00,41.7,24.9,27.23,SE,135,15.4,17.9,51,0.00,,---,0.00,VWS V14.01,2013-04-16 18:37:00,
2013-04-16 13:42:00,41.5,24.8,27.23,SE,135,10.3,17.9,51,0.00,,---,0.00,VWS V14.01,2013-04-16 18:42:00,
2013-04-16 13:45:00,44.6,25.1,27.23,NE,45,5.4,17.7,46,0.00,,---,0.00,VWS V14.01,2013-04-16 18:45:00,
2013-04-16 13:47:00,41.9,24.6,27.20,ESE,112,11.2,13.2,50,0.00,,---,0.00,VWS V14.01,2013-04-16 18:47:00,
2013-04-16 13:52:00,41.9,24.6,27.20,SE,135,10.7,17.7,50,0.00,,---,0.00,VWS V14.01,2013-04-16 18:52:00,
2013-04-16 13:57:00,43.7,25.8,27.20,ESE,112,10.1,17.7,49,0.00,,---,0.00,VWS V14.01,2013-04-16 18:57:00,
2013-04-16 14:02:00,44.6,26.1,27.20,SE,135,15.2,16.8,48,0.00,,---,0.00,VWS V14.01,2013-04-16 19:02:00,
2013-04-16 14:07:00,44.8,26.3,27.20,SE,135,16.6,19.2,48,0.00,,---,0.00,VWS V14.01,2013-04-16 19:07:00,
2013-04-16 14:12:00,44.8,26.3,27.20,East,90,8.5,19.2,48,0.00,,---,0.00,VWS V14.01,2013-04-16 19:12:00,
2013-04-16 14:15:00,46.2,26.1,27.20,ESE,112,14.8,17.7,45,0.00,,---,0.00,VWS V14.01,2013-04-16 19:15:00,
2013-04-16 14:17:00,45.1,26.1,27.20,SE,135,8.5,9.0,47,0.00,,---,0.00,VWS V14.01,2013-04-16 19:17:00,
2013-04-16 14:22:00,45.0,25.4,27.20,SE,135,17.0,17.0,46,0.00,,---,0.00,VWS V14.01,2013-04-16 19:22:00,
2013-04-16 14:27:00,44.4,25.5,27.20,ESE,112,11.2,19.0,47,0.00,,---,0.00,VWS V14.01,2013-04-16 19:27:00,
2013-04-16 14:30:00,46.4,25.1,27.20,SE,135,12.5,19.0,43,0.00,,---,0.00,VWS V14.01,2013-04-16 19:30:00,
2013-04-16 14:32:00,44.2,25.3,27.23,SE,135,15.7,17.0,47,0.00,,---,0.00,VWS V14.01,2013-04-16 19:32:00,
2013-04-16 14:37:00,44.4,25.5,27.23,East,90,8.7,17.7,47,0.00,,---,0.00,VWS V14.01,2013-04-16 19:37:00,
2013-04-16 14:42:00,44.8,25.3,27.23,SE,135,12.8,17.7,46,0.00,,---,0.00,VWS V14.01,2013-04-16 19:42:00,
2013-04-16 14:45:00,48.0,26.6,27.20,SE,135,15.4,19.2,43,0.00,,---,0.00,VWS V14.01,2013-04-16 19:45:00,
2013-04-16 14:47:00,44.6,25.1,27.20,East,90,13.6,13.6,46,0.00,,---,0.00,VWS V14.01,2013-04-16 19:47:00,
2013-04-16 14:52:00,45.1,25.6,27.20,ESE,112,10.5,15.9,46,0.00,,---,0.00,VWS V14.01,2013-04-16 19:52:00,
2013-04-16 14:57:00,45.9,26.3,27.20,SE,135,18.1,19.7,46,0.00,,---,0.00,VWS V14.01,2013-04-16 19:57:00,
2013-04-16 15:00:00,47.5,25.5,27.20,SE,135,15.4,23.9,42,0.00,,---,0.00,VWS V14.01,2013-04-16 20:00:00,
2013-04-16 15:02:00,45.5,25.4,27.20,SE,135,14.8,17.7,45,0.00,,---,0.00,VWS V14.01,2013-04-16 20:02:00,
2013-04-16 15:07:00,46.0,25.9,27.20,East,90,13.6,17.7,45,0.00,,---,0.00,VWS V14.01,2013-04-16 20:07:00,
2013-04-16 15:12:00,46.0,25.9,27.20,ESE,112,10.5,17.7,45,0.00,,---,0.00,VWS V14.01,2013-04-16 20:12:00,
2013-04-16 15:15:00,46.0,24.2,27.17,East,90,12.1,23.0,42,0.00,,---,0.00,VWS V14.01,2013-04-16 20:15:00,
2013-04-16 15:17:00,46.0,25.9,27.20,ESE,112,16.8,19.0,45,0.00,,---,0.00,VWS V14.01,2013-04-16 20:17:00,
2013-04-16 15:22:00,46.0,25.4,27.20,ESE,112,8.5,19.0,44,0.00,,---,0.00,VWS V14.01,2013-04-16 20:22:00,
2013-04-16 15:27:00,46.4,25.7,27.20,NE,45,7.6,19.0,44,0.00,,---,0.00,VWS V14.01,2013-04-16 20:27:00,
2013-04-16 15:30:00,45.9,24.1,27.14,East,90,17.2,22.2,42,0.00,,---,0.00,VWS V14.01,2013-04-16 20:30:00,
2013-04-16 15:32:00,46.6,25.3,27.20,East,90,12.5,17.7,43,0.00,,---,0.00,VWS V14.01,2013-04-16 20:32:00,
2013-04-16 15:37:00,46.4,25.1,27.20,ESE,112,13.6,18.1,43,0.00,,---,0.00,VWS V14.01,2013-04-16 20:37:00,
2013-04-16 15:42:00,46.4,25.1,27.20,East,90,5.6,19.2,43,0.00,,---,0.00,VWS V14.01,2013-04-16 20:42:00,
2013-04-16 15:45:00,45.9,24.1,27.14,ESE,112,15.7,22.6,42,0.00,,---,0.00,VWS V14.01,2013-04-16 20:45:00,
2013-04-16 15:47:00,48.6,26.5,27.20,SE,135,15.2,16.3,42,0.00,,---,0.00,VWS V14.01,2013-04-16 20:47:00,
2013-04-16 15:52:00,48.7,26.1,27.20,ESE,112,13.2,21.9,41,0.00,,---,0.00,VWS V14.01,2013-04-16 20:52:00,
2013-04-16 15:57:00,47.8,25.9,27.20,SE,135,10.1,21.9,42,0.00,,---,0.00,VWS V14.01,2013-04-16 20:57:00,
2013-04-16 16:00:00,44.6,22.9,27.14,East,90,11.0,21.3,42,0.00,,---,0.00,VWS V14.01,2013-04-16 21:00:00,
2013-04-16 16:02:00,46.9,25.1,27.17,ESE,112,10.5,15.4,42,0.00,,---,0.00,VWS V14.01,2013-04-16 21:02:00,
2013-04-16 16:07:00,45.9,24.1,27.17,ESE,112,10.7,23.0,42,0.00,,---,0.00,VWS V14.01,2013-04-16 21:07:00,
2013-04-16 16:12:00,46.2,24.4,27.17,ESE,112,8.7,23.0,42,0.00,,---,0.00,VWS V14.01,2013-04-16 21:12:00,
2013-04-16 16:17:00,46.0,24.8,27.14,ESE,112,11.0,13.2,43,0.00,,---,0.00,VWS V14.01,2013-04-16 21:17:00,
2013-04-16 16:22:00,46.0,24.8,27.14,East,90,7.4,22.2,43,0.00,,---,0.00,VWS V14.01,2013-04-16 21:22:00,
2013-04-16 16:27:00,45.9,24.1,27.14,ESE,112,12.5,22.2,42,0.00,,---,0.00,VWS V14.01,2013-04-16 21:27:00,
2013-04-16 16:30:00,43.3,22.4,27.14,SE,135,16.1,20.6,43,0.00,,---,0.00,VWS V14.01,2013-04-16 21:30:00,
2013-04-16 16:32:00,46.0,24.2,27.14,SE,135,15.4,17.9,42,0.00,,---,0.00,VWS V14.01,2013-04-16 21:32:00,
2013-04-16 16:37:00,46.8,24.9,27.14,SE,135,12.3,22.6,42,0.00,,---,0.00,VWS V14.01,2013-04-16 21:37:00,
2013-04-16 16:42:00,46.0,24.2,27.14,East,90,12.3,22.6,42,0.00,,---,0.00,VWS V14.01,2013-04-16 21:42:00,
2013-04-16 16:45:00,43.3,22.4,27.14,ESE,112,12.5,21.0,43,0.00,,---,0.00,VWS V14.01,2013-04-16 21:45:00,
2013-04-16 16:47:00,45.9,24.1,27.14,ESE,112,12.8,15.7,42,0.00,,---,0.00,VWS V14.01,2013-04-16 21:47:00,
2013-04-16 16:52:00,45.3,23.6,27.14,ESE,112,11.0,19.2,42,0.00,,---,0.00,VWS V14.01,2013-04-16 21:52:00,
2013-04-16 16:57:00,45.0,23.3,27.14,SE,135,13.0,21.3,42,0.00,,---,0.00,VWS V14.01,2013-04-16 21:57:00,
2013-04-16 17:00:00,43.3,22.4,27.14,East,90,5.4,19.7,43,0.00,,---,0.00,VWS V14.01,2013-04-16 22:00:00,
2013-04-16 17:02:00,44.6,22.9,27.14,East,90,12.5,14.3,42,0.00,,---,0.00,VWS V14.01,2013-04-16 22:02:00,
2013-04-16 17:07:00,44.2,23.2,27.14,ESE,112,19.9,19.9,43,0.00,,---,0.00,VWS V14.01,2013-04-16 22:07:00,
2013-04-16 17:12:00,44.1,23.0,27.14,SE,135,12.5,19.9,43,0.00,,---,0.00,VWS V14.01,2013-04-16 22:12:00,
2013-04-16 17:15:00,42.8,21.9,27.14,ESE,112,10.7,19.2,43,0.00,,---,0.00,VWS V14.01,2013-04-16 22:15:00,
2013-04-16 17:17:00,43.7,22.7,27.14,SE,135,10.5,20.6,43,0.00,,---,0.00,VWS V14.01,2013-04-16 22:17:00,
2013-04-16 17:22:00,43.7,22.7,27.14,ESE,112,10.3,20.6,43,0.00,,---,0.00,VWS V14.01,2013-04-16 22:22:00,
2013-04-16 17:27:00,43.5,22.5,27.14,ESE,112,10.1,20.6,43,0.00,,---,0.00,VWS V14.01,2013-04-16 22:27:00,
2013-04-16 17:30:00,42.8,21.9,27.14,NE,45,10.1,17.5,43,0.00,,---,0.00,VWS V14.01,2013-04-16 22:30:00,
2013-04-16 17:32:00,43.3,22.4,27.14,SE,135,16.1,20.6,43,0.00,,---,0.00,VWS V14.01,2013-04-16 22:32:00,
2013-04-16 17:37:00,43.3,22.4,27.14,SE,135,17.5,21.0,43,0.00,,---,0.00,VWS V14.01,2013-04-16 22:37:00,
2013-04-16 17:42:00,43.2,22.2,27.14,ESE,112,15.4,21.0,43,0.00,,---,0.00,VWS V14.01,2013-04-16 22:42:00,
2013-04-16 17:45:00,42.3,21.9,27.14,ESE,112,15.4,19.9,44,0.00,,---,0.00,VWS V14.01,2013-04-16 22:45:00,
2013-04-16 17:47:00,43.3,22.4,27.14,ESE,112,19.7,19.7,43,0.00,,---,0.00,VWS V14.01,2013-04-16 22:47:00,
2013-04-16 17:52:00,43.3,22.4,27.14,SE,135,16.6,19.7,43,0.00,,---,0.00,VWS V14.01,2013-04-16 22:52:00,
2013-04-16 17:57:00,43.0,22.0,27.14,SE,135,9.8,19.7,43,0.00,,---,0.00,VWS V14.01,2013-04-16 22:57:00,
2013-04-16 18:00:00,41.7,21.4,27.14,East,90,14.8,20.8,44,0.00,,---,0.00,VWS V14.01,2013-04-16 23:00:00,
2013-04-16 18:02:00,43.3,22.4,27.14,ESE,112,15.2,18.8,43,0.00,,---,0.00,VWS V14.01,2013-04-16 23:02:00,
2013-04-16 18:07:00,43.0,22.0,27.14,ESE,112,12.1,18.8,43,0.00,,---,0.00,VWS V14.01,2013-04-16 23:07:00,
2013-04-16 18:12:00,43.0,22.0,27.14,ESE,112,11.9,19.2,43,0.00,,---,0.00,VWS V14.01,2013-04-16 23:12:00,
2013-04-16 18:15:00,41.2,21.5,27.14,East,90,10.5,15.2,45,0.00,,---,0.00,VWS V14.01,2013-04-16 23:15:00,
2013-04-16 18:17:00,42.8,21.9,27.14,SE,135,11.4,11.4,43,0.00,,---,0.00,VWS V14.01,2013-04-16 23:17:00,
2013-04-16 18:22:00,43.0,22.0,27.14,East,90,9.8,15.2,43,0.00,,---,0.00,VWS V14.01,2013-04-16 23:22:00,
2013-04-16 18:27:00,42.8,21.9,27.14,East,90,8.7,17.5,43,0.00,,---,0.00,VWS V14.01,2013-04-16 23:27:00,
2013-04-16 18:30:00,40.6,21.5,27.14,East,90,7.6,17.2,46,0.00,,---,0.00,VWS V14.01,2013-04-16 23:30:00,
2013-04-16 18:32:00,42.8,21.9,27.14,East,90,13.2,18.1,43,0.00,,---,0.00,VWS V14.01,2013-04-16 23:32:00,
2013-04-16 18:37:00,42.8,21.9,27.14,SE,135,15.2,18.1,43,0.00,,---,0.00,VWS V14.01,2013-04-16 23:37:00,
2013-04-16 18:42:00,42.4,22.1,27.14,ENE,68,14.8,19.9,44,0.00,,---,0.00,VWS V14.01,2013-04-16 23:42:00,
2013-04-16 18:45:00,40.5,21.3,27.14,ENE,68,8.5,13.2,46,0.00,,---,0.00,VWS V14.01,2013-04-16 23:45:00,
2013-04-16 18:47:00,42.1,21.8,27.14,East,90,9.4,19.2,44,0.00,,---,0.00,VWS V14.01,2013-04-16 23:47:00,
2013-04-16 18:52:00,41.9,21.6,27.14,SE,135,16.6,20.8,44,0.00,,---,0.00,VWS V14.01,2013-04-16 23:52:00,
2013-04-16 18:57:00,41.7,21.4,27.14,SE,135,15.4,20.8,44,0.00,,---,0.00,VWS V14.01,2013-04-16 23:57:00,
2013-04-16 19:00:00,40.3,21.7,27.14,NE,45,9.8,15.7,47,0.00,,---,0.00,VWS V14.01,2013-04-17 00:00:00,
2013-04-16 19:02:00,41.5,21.3,27.14,ENE,68,12.3,14.8,44,0.00,,---,0.00,VWS V14.01,2013-04-17 00:02:00,
2013-04-16 19:07:00,41.4,21.1,27.14,SE,135,10.7,14.8,44,0.00,,---,0.00,VWS V14.01,2013-04-17 00:07:00,
2013-04-16 19:12:00,41.2,21.5,27.14,ESE,112,11.2,15.2,45,0.00,,---,0.00,VWS V14.01,2013-04-17 00:12:00,
2013-04-16 19:15:00,39.9,21.3,27.17,ESE,112,8.1,14.8,47,0.00,,---,0.00,VWS V14.01,2013-04-17 00:15:00,
2013-04-16 19:17:00,41.2,21.5,27.14,East,90,15.4,15.4,45,0.00,,---,0.00,VWS V14.01,2013-04-17 00:17:00,
2013-04-16 19:22:00,41.0,21.3,27.14,ESE,112,12.5,17.2,45,0.00,,---,0.00,VWS V14.01,2013-04-17 00:22:00,
2013-04-16 19:27:00,40.6,21.0,27.14,ESE,112,8.7,17.2,45,0.00,,---,0.00,VWS V14.01,2013-04-17 00:27:00,
2013-04-16 19:30:00,39.7,21.7,27.17,SE,135,7.8,13.2,48,0.00,,---,0.00,VWS V14.01,2013-04-17 00:30:00,
2013-04-16 19:32:00,40.6,21.5,27.14,East,90,12.5,13.2,46,0.00,,---,0.00,VWS V14.01,2013-04-17 00:32:00,
2013-04-16 19:37:00,40.5,21.3,27.14,ENE,68,7.8,13.2,46,0.00,,---,0.00,VWS V14.01,2013-04-17 00:37:00,
2013-04-16 19:42:00,40.5,21.3,27.14,East,90,7.8,13.2,46,0.00,,---,0.00,VWS V14.01,2013-04-17 00:42:00,
2013-04-16 19:45:00,39.4,21.8,27.17,East,90,6.0,12.1,49,0.00,,---,0.00,VWS V14.01,2013-04-17 00:45:00,
2013-04-16 19:47:00,40.5,21.3,27.14,East,90,8.1,10.3,46,0.00,,---,0.00,VWS V14.01,2013-04-17 00:47:00,
2013-04-16 19:52:00,40.3,21.2,27.14,East,90,7.4,15.7,46,0.00,,---,0.00,VWS V14.01,2013-04-17 00:52:00,
2013-04-16 19:57:00,40.3,21.7,27.14,ENE,68,10.3,15.7,47,0.00,,---,0.00,VWS V14.01,2013-04-17 00:57:00,
2013-04-16 20:00:00,39.4,22.3,27.20,East,90,7.4,10.7,50,0.00,,---,0.00,VWS V14.01,2013-04-17 01:00:00,
2013-04-16 20:02:00,40.3,21.7,27.17,ESE,112,8.7,10.7,47,0.00,,---,0.00,VWS V14.01,2013-04-17 01:02:00,
2013-04-16 20:07:00,40.1,21.5,27.17,East,90,8.7,12.5,47,0.00,,---,0.00,VWS V14.01,2013-04-17 01:07:00,
2013-04-16 20:12:00,40.1,21.5,27.17,East,90,9.8,14.8,47,0.00,,---,0.00,VWS V14.01,2013-04-17 01:12:00,
2013-04-16 20:15:00,39.2,22.6,27.20,East,90,10.7,10.7,51,0.00,,---,0.00,VWS V14.01,2013-04-17 01:15:00,
2013-04-16 20:17:00,39.9,21.3,27.17,East,90,7.4,11.0,47,0.00,,---,0.00,VWS V14.01,2013-04-17 01:17:00,
2013-04-16 20:22:00,39.9,21.8,27.17,East,90,8.1,13.0,48,0.00,,---,0.00,VWS V14.01,2013-04-17 01:22:00,
2013-04-16 20:27:00,39.7,21.7,27.17,ESE,112,9.8,13.2,48,0.00,,---,0.00,VWS V14.01,2013-04-17 01:27:00,
2013-04-16 20:30:00,39.0,22.9,27.20,ENE,68,7.2,10.7,52,0.00,,---,0.00,VWS V14.01,2013-04-17 01:30:00,
2013-04-16 20:32:00,39.7,21.7,27.17,SE,135,7.6,12.1,48,0.00,,---,0.00,VWS V14.01,2013-04-17 01:32:00,
2013-04-16 20:37:00,39.6,22.0,27.17,East,90,10.5,12.1,49,0.00,,---,0.00,VWS V14.01,2013-04-17 01:37:00,
2013-04-16 20:42:00,39.6,22.0,27.17,East,90,7.8,12.1,49,0.00,,---,0.00,VWS V14.01,2013-04-17 01:42:00,
2013-04-16 20:45:00,39.0,22.9,27.20,East,90,8.1,10.3,52,0.00,,---,0.00,VWS V14.01,2013-04-17 01:45:00,
2013-04-16 20:47:00,39.4,22.3,27.20,East,90,9.0,9.0,50,0.00,,---,0.00,VWS V14.01,2013-04-17 01:47:00,
2013-04-16 20:52:00,39.4,22.3,27.20,East,90,7.6,10.7,50,0.00,,---,0.00,VWS V14.01,2013-04-17 01:52:00,
2013-04-16 20:57:00,39.4,22.3,27.20,NE,45,5.8,10.7,50,0.00,,---,0.00,VWS V14.01,2013-04-17 01:57:00,
2013-04-16 21:00:00,38.8,23.2,27.20,ENE,68,5.8,9.8,53,0.00,,---,0.00,VWS V14.01,2013-04-17 02:00:00,
2013-04-16 21:02:00,39.2,22.1,27.20,East,90,7.8,10.5,50,0.00,,---,0.00,VWS V14.01,2013-04-17 02:02:00,
2013-04-16 21:07:00,39.2,22.1,27.20,East,90,7.4,10.5,50,0.00,,---,0.00,VWS V14.01,2013-04-17 02:07:00,
2013-04-16 21:12:00,39.2,22.6,27.20,NE,45,7.6,10.5,51,0.00,,---,0.00,VWS V14.01,2013-04-17 02:12:00,
2013-04-16 21:15:00,39.0,23.4,27.20,East,90,6.5,13.0,53,0.00,,---,0.00,VWS V14.01,2013-04-17 02:15:00,
2013-04-16 21:17:00,39.2,22.6,27.20,ENE,68,6.7,10.7,51,0.00,,---,0.00,VWS V14.01,2013-04-17 02:17:00,
2013-04-16 21:22:00,39.0,22.9,27.20,SE,135,3.6,10.7,52,0.00,,---,0.00,VWS V14.01,2013-04-17 02:22:00,
2013-04-16 21:27:00,39.0,22.9,27.20,East,90,7.8,10.7,52,0.00,,---,0.00,VWS V14.01,2013-04-17 02:27:00,
2013-04-16 21:30:00,39.0,23.4,27.23,East,90,4.3,9.8,53,0.00,,---,0.00,VWS V14.01,2013-04-17 02:30:00,
2013-04-16 21:32:00,39.0,22.9,27.20,ESE,112,10.3,10.3,52,0.00,,---,0.00,VWS V14.01,2013-04-17 02:32:00,
2013-04-16 21:37:00,39.0,22.9,27.20,ENE,68,9.0,10.3,52,0.00,,---,0.00,VWS V14.01,2013-04-17 02:37:00,
2013-04-16 21:42:00,39.0,22.9,27.20,East,90,8.1,10.3,52,0.00,,---,0.00,VWS V14.01,2013-04-17 02:42:00,
2013-04-16 21:45:00,38.8,23.2,27.23,ESE,112,2.7,7.6,53,0.00,,---,0.00,VWS V14.01,2013-04-17 02:45:00,
2013-04-16 21:47:00,39.0,22.9,27.20,East,90,7.8,8.1,52,0.00,,---,0.00,VWS V14.01,2013-04-17 02:47:00,
2013-04-16 21:52:00,39.0,22.9,27.20,ESE,112,7.6,8.5,52,0.00,,---,0.00,VWS V14.01,2013-04-17 02:52:00,
2013-04-16 21:57:00,39.0,22.9,27.20,East,90,4.0,8.5,52,0.00,,---,0.00,VWS V14.01,2013-04-17 02:57:00,
2013-04-16 21:59:00,38.8,23.2,27.23,East,90,4.9,7.8,53,0.00,,---,0.00,VWS V14.01,2013-04-17 02:59:00,
2013-04-16 22:00:00,38.8,23.2,27.23,East,90,4.9,7.8,53,0.00,,---,0.00,VWS V14.01,2013-04-17 03:00:00,
2013-04-16 22:01:00,38.8,23.2,27.23,ESE,112,10.7,13.2,53,0.00,,---,0.00,VWS V14.01,2013-04-17 03:01:00,
2013-04-16 22:02:00,38.8,23.2,27.20,East,90,6.5,8.7,53,0.00,,---,0.00,VWS V14.01,2013-04-17 03:02:00,
2013-04-16 22:03:00,38.8,23.2,27.23,SE,135,8.1,14.5,53,0.00,,---,0.00,VWS V14.01,2013-04-17 03:03:00,
2013-04-16 22:04:00,38.8,23.2,27.23,East,90,12.8,14.5,53,0.00,,---,0.00,VWS V14.01,2013-04-17 03:04:00,
2013-04-16 22:07:00,39.0,23.4,27.20,East,90,10.7,12.3,53,0.00,,---,0.00,VWS V14.01,2013-04-17 03:07:00,
2013-04-16 22:12:00,39.0,23.4,27.20,ESE,112,4.3,13.0,53,0.00,,---,0.00,VWS V14.01,2013-04-17 03:12:00,
2013-04-16 22:15:00,38.8,23.2,27.23,East,90,5.8,14.5,53,0.00,,---,0.00,VWS V14.01,2013-04-17 03:15:00,
2013-04-16 22:17:00,39.0,23.4,27.23,East,90,6.5,8.1,53,0.00,,---,0.00,VWS V14.01,2013-04-17 03:17:00,
2013-04-16 22:22:00,39.0,23.4,27.23,East,90,5.4,9.8,53,0.00,,---,0.00,VWS V14.01,2013-04-17 03:22:00,
2013-04-16 22:27:00,39.0,23.4,27.23,East,90,2.9,9.8,53,0.00,,---,0.00,VWS V14.01,2013-04-17 03:27:00,
2013-04-16 22:30:00,38.8,23.2,27.20,ESE,112,8.7,12.1,53,0.00,,---,0.00,VWS V14.01,2013-04-17 03:30:00,
2013-04-16 22:32:00,38.8,23.2,27.23,East,90,0.0,7.2,53,0.00,,---,0.00,VWS V14.01,2013-04-17 03:32:00,
2013-04-16 22:37:00,38.8,23.2,27.23,ENE,68,3.8,7.2,53,0.00,,---,0.00,VWS V14.01,2013-04-17 03:37:00,
2013-04-16 22:42:00,38.8,23.2,27.23,ESE,112,6.5,7.2,53,0.00,,---,0.00,VWS V14.01,2013-04-17 03:42:00,
2013-04-16 22:45:00,38.8,23.2,27.20,ESE,112,3.8,12.1,53,0.00,,---,0.00,VWS V14.01,2013-04-17 03:45:00,
2013-04-16 22:47:00,38.8,23.2,27.23,East,90,6.0,6.5,53,0.00,,---,0.00,VWS V14.01,2013-04-17 03:47:00,
2013-04-16 22:52:00,38.8,23.2,27.23,ESE,112,7.8,7.8,53,0.00,,---,0.00,VWS V14.01,2013-04-17 03:52:00,
2013-04-16 22:57:00,38.8,23.2,27.23,ESE,112,4.0,7.8,53,0.00,,---,0.00,VWS V14.01,2013-04-17 03:57:00,
2013-04-16 23:00:00,38.7,23.5,27.20,East,90,2.5,8.5,54,0.00,,---,0.00,VWS V14.01,2013-04-17 04:00:00,
2013-04-16 23:03:00,38.8,23.2,27.23,East,90,12.8,14.5,53,0.00,,---,0.00,VWS V14.01,2013-04-17 04:03:00,
2013-04-16 23:08:00,39.0,23.4,27.23,SE,135,8.1,14.5,53,0.00,,---,0.00,VWS V14.01,2013-04-17 04:08:00,
2013-04-16 23:13:00,38.8,23.2,27.23,SE,135,6.9,14.5,53,0.00,,---,0.00,VWS V14.01,2013-04-17 04:13:00,
2013-04-16 23:15:00,38.5,23.7,27.20,East,90,0.0,2.5,55,0.00,,---,0.00,VWS V14.01,2013-04-17 04:15:00,
2013-04-16 23:18:00,38.8,23.2,27.20,East,90,6.0,8.5,53,0.00,,---,0.00,VWS V14.01,2013-04-17 04:18:00,
2013-04-16 23:23:00,38.8,23.2,27.20,ESE,112,7.6,9.6,53,0.00,,---,0.00,VWS V14.01,2013-04-17 04:23:00,
2013-04-16 23:28:00,38.8,23.2,27.20,SE,135,6.5,12.1,53,0.00,,---,0.00,VWS V14.01,2013-04-17 04:28:00,
2013-04-16 23:30:00,38.1,23.4,27.20,ENE,68,0.0,0.0,55,0.00,,---,0.00,VWS V14.01,2013-04-17 04:30:00,
2013-04-16 23:33:00,38.8,23.2,27.20,ESE,112,6.7,8.7,53,0.00,,---,0.00,VWS V14.01,2013-04-17 04:33:00,
2013-04-16 23:38:00,38.8,23.2,27.20,East,90,3.8,12.1,53,0.00,,---,0.00,VWS V14.01,2013-04-17 04:38:00,
2013-04-16 23:43:00,38.8,23.2,27.20,East,90,6.3,12.1,53,0.00,,---,0.00,VWS V14.01,2013-04-17 04:43:00,
2013-04-16 23:45:00,37.9,23.7,27.20,NE,45,5.4,11.0,56,0.00,,---,0.00,VWS V14.01,2013-04-17 04:45:00,
2013-04-16 23:47:00,38.7,23.0,27.20,East,90,6.0,7.8,53,0.00,,---,0.00,VWS V14.01,2013-04-17 04:47:00,
2013-04-16 23:52:00,38.7,23.5,27.20,East,90,5.4,7.8,54,0.00,,---,0.00,VWS V14.01,2013-04-17 04:52:00,
2013-04-16 23:57:00,38.7,23.5,27.20,ENE,68,3.8,8.5,54,0.00,,---,0.00,VWS V14.01,2013-04-17 04:57:00,